Time;durP1;ratioP1;P1;durP2;ratioP2;P2;SDS_P1;SDS_P2;PMS_P1;PMS_P2;Temp;Humidity;BMP_temperature;BMP_pressure;BME280_temperature;BME280_humidity;BME280_pressure;Samples;Min_cycle;Max_cycle;Signal;HPM_P1;HPM_P2
2022/03/02 00:01:36;;;;;;;69.30;23.40;;;1.50;99.90;;;;;;5095218;28;20030;-89
2022/03/02 00:04:02;;;;;;;65.55;23.30;;;1.50;99.90;;;;;;5095980;28;20366;-88
2022/03/02 00:06:28;;;;;;;69.50;22.00;;;1.40;99.90;;;;;;5094922;28;20028;-88
2022/03/02 00:08:54;;;;;;;67.10;22.13;;;1.40;99.90;;;;;;5094548;28;20039;-88
2022/03/02 00:11:19;;;;;;;67.53;21.27;;;1.50;99.90;;;;;;5095955;28;20031;-88
2022/03/02 00:13:45;;;;;;;72.68;21.45;;;1.50;99.90;;;;;;5094681;28;20031;-88
2022/03/02 00:16:12;;;;;;;65.80;21.35;;;1.50;99.90;;;;;;5094393;28;20094;-88
2022/03/02 00:18:38;;;;;;;71.45;21.92;;;1.50;99.90;;;;;;5094591;28;20032;-88
2022/03/02 00:21:03;;;;;;;65.82;22.15;;;1.50;99.90;;;;;;5094594;28;20023;-88
2022/03/02 00:23:29;;;;;;;66.97;21.92;;;1.50;99.90;;;;;;5094654;28;20028;-86
2022/03/02 00:25:55;;;;;;;70.07;22.48;;;1.50;99.90;;;;;;5095752;28;20026;-88
2022/03/02 00:28:21;;;;;;;71.78;22.05;;;1.50;99.90;;;;;;5094390;28;20024;-88
2022/03/02 00:30:48;;;;;;;67.18;21.40;;;1.40;99.90;;;;;;5094359;28;20110;-87
2022/03/02 00:33:14;;;;;;;66.03;21.55;;;1.40;99.90;;;;;;5094508;28;20113;-87
2022/03/02 00:35:40;;;;;;;69.78;21.58;;;1.50;99.90;;;;;;5094236;28;20485;-87
2022/03/02 00:38:09;;;;;;;69.43;21.10;;;1.50;99.90;;;;;;5095442;28;20046;-87
2022/03/02 00:40:35;;;;;;;76.85;22.00;;;1.50;99.90;;;;;;5094423;28;20105;-87
2022/03/02 00:43:01;;;;;;;67.05;20.05;;;1.50;99.90;;;;;;5094411;28;20030;-87
2022/03/02 00:45:26;;;;;;;56.15;18.75;;;1.50;99.90;;;;;;5095249;28;20032;-86
2022/03/02 00:47:52;;;;;;;69.60;20.85;;;1.50;99.90;;;;;;5094201;28;20540;-87
2022/03/02 00:50:19;;;;;;;70.85;21.30;;;1.50;99.90;;;;;;5093954;28;20036;-88
2022/03/02 00:52:45;;;;;;;66.70;21.80;;;1.50;99.90;;;;;;5094083;28;20482;-88
2022/03/02 00:55:10;;;;;;;70.20;21.98;;;1.50;99.90;;;;;;5093910;28;20472;-89
2022/03/02 00:57:36;;;;;;;77.55;22.38;;;1.50;99.90;;;;;;5093957;28;20032;-88
2022/03/02 01:00:04;;;;;;;75.97;22.00;;;1.50;99.90;;;;;;5093870;28;20020;-88
2022/03/02 01:02:30;;;;;;;73.22;22.05;;;1.50;99.90;;;;;;5093564;28;20474;-87
2022/03/02 01:04:56;;;;;;;70.43;20.55;;;1.50;99.90;;;;;;5093881;28;20114;-87
2022/03/02 01:07:21;;;;;;;84.50;23.00;;;1.50;99.90;;;;;;5093972;28;20081;-88
2022/03/02 01:09:47;;;;;;;78.65;20.63;;;1.50;99.90;;;;;;5094893;28;20059;-88
2022/03/02 01:12:13;;;;;;;63.45;20.60;;;1.50;99.90;;;;;;5093771;28;20085;-87
2022/03/02 01:14:38;;;;;;;82.65;22.30;;;1.50;99.90;;;;;;5094520;28;20525;-88
2022/03/02 01:17:04;;;;;;;88.05;23.42;;;1.40;99.90;;;;;;5093825;28;20064;-87
2022/03/02 01:19:30;;;;;;;82.10;21.20;;;1.40;99.90;;;;;;5092637;28;20470;-88
2022/03/02 01:21:55;;;;;;;72.70;21.60;;;1.40;99.90;;;;;;5093754;28;20024;-88
2022/03/02 01:24:21;;;;;;;84.22;23.48;;;1.50;99.90;;;;;;5093465;28;20031;-88
2022/03/02 01:26:47;;;;;;;81.95;22.90;;;1.50;99.90;;;;;;5093698;28;20035;-88
2022/03/02 01:29:13;;;;;;;94.45;23.85;;;1.50;99.90;;;;;;5093437;28;20390;-88
2022/03/02 01:31:39;;;;;;;78.65;22.15;;;1.40;99.90;;;;;;5093496;28;20024;-87
2022/03/02 01:34:05;;;;;;;83.03;23.80;;;1.50;99.90;;;;;;5093474;28;20024;-87
2022/03/02 01:36:30;;;;;;;85.05;23.23;;;1.50;99.90;;;;;;5093421;28;20035;-87
2022/03/02 01:38:56;;;;;;;85.00;23.70;;;1.50;99.90;;;;;;5093264;28;20031;-87
2022/03/02 01:41:25;;;;;;;88.55;23.95;;;1.50;99.90;;;;;;5094405;28;20378;-86
2022/03/02 01:43:53;;;;;;;94.60;23.00;;;1.50;99.90;;;;;;5093432;28;20111;-87
2022/03/02 01:46:19;;;;;;;86.18;21.67;;;1.50;99.90;;;;;;5094278;28;20026;-86
2022/03/02 01:48:45;;;;;;;93.72;23.27;;;1.50;99.90;;;;;;5093485;28;20070;-89
2022/03/02 01:51:12;;;;;;;86.85;23.20;;;1.50;99.90;;;;;;5093441;28;20506;-88
2022/03/02 01:53:38;;;;;;;98.22;24.42;;;1.60;99.90;;;;;;5094374;28;20032;-87
2022/03/02 01:56:04;;;;;;;95.85;22.77;;;1.60;99.90;;;;;;5094414;28;20028;-89
2022/03/02 01:58:30;;;;;;;96.18;22.95;;;1.50;99.90;;;;;;5093376;28;20078;-89
2022/03/02 02:00:58;;;;;;;85.65;22.17;;;1.50;99.90;;;;;;5092966;28;20029;-87
2022/03/02 02:03:24;;;;;;;98.55;23.50;;;1.60;99.90;;;;;;5093375;28;20032;-88
2022/03/02 02:05:50;;;;;;;88.55;21.90;;;1.50;99.90;;;;;;5094313;28;20020;-87
2022/03/02 02:08:16;;;;;;;108.00;23.17;;;1.60;99.90;;;;;;5094374;28;20024;-88
2022/03/02 02:10:42;;;;;;;91.30;23.02;;;1.50;99.90;;;;;;5094369;28;20048;-88
2022/03/02 02:13:08;;;;;;;89.05;22.52;;;1.60;99.90;;;;;;5092963;28;20024;-88
2022/03/02 02:15:33;;;;;;;87.28;21.60;;;1.60;99.90;;;;;;5092762;28;20036;-88
2022/03/02 02:17:59;;;;;;;90.95;22.52;;;1.60;99.90;;;;;;5094226;28;20038;-88
2022/03/02 02:20:25;;;;;;;109.85;23.98;;;1.60;99.90;;;;;;5093130;28;20027;-88
2022/03/02 02:22:51;;;;;;;96.93;23.55;;;1.60;99.90;;;;;;5094312;28;20062;-88
2022/03/02 02:25:17;;;;;;;99.32;22.90;;;1.60;99.90;;;;;;5094346;28;20020;-88
2022/03/02 02:27:44;;;;;;;97.85;22.85;;;1.60;99.90;;;;;;5093002;28;20024;-87
2022/03/02 02:30:12;;;;;;;108.68;24.48;;;1.60;99.90;;;;;;5094069;28;20466;-87
2022/03/02 02:32:39;;;;;;;112.90;23.70;;;1.60;99.90;;;;;;5096777;28;20028;-87
2022/03/02 02:35:06;;;;;;;102.53;22.50;;;1.70;99.90;;;;;;5096926;28;20028;-87
2022/03/02 02:37:34;;;;;;;100.05;22.52;;;1.60;99.90;;;;;;5097676;28;20060;-87
2022/03/02 02:40:03;;;;;;;120.53;25.00;;;1.60;99.90;;;;;;5096444;28;20038;-87
2022/03/02 02:42:29;;;;;;;103.10;23.52;;;1.60;99.90;;;;;;5096375;28;20077;-87
2022/03/02 02:44:55;;;;;;;100.25;23.67;;;1.60;99.90;;;;;;5097576;28;20051;-86
2022/03/02 02:47:22;;;;;;;109.30;23.10;;;1.60;99.90;;;;;;5097555;28;20024;-87
2022/03/02 02:49:48;;;;;;;129.45;26.23;;;1.60;99.90;;;;;;5097431;28;20478;-86
2022/03/02 02:52:14;;;;;;;109.00;25.63;;;1.50;99.90;;;;;;5096607;28;20028;-87
2022/03/02 02:54:42;;;;;;;114.55;24.52;;;1.60;99.90;;;;;;5096274;28;20024;-87
2022/03/02 02:57:08;;;;;;;99.50;22.90;;;1.60;99.90;;;;;;5096225;28;20472;-86
2022/03/02 02:59:35;;;;;;;106.38;23.05;;;1.50;99.90;;;;;;5096350;28;20038;-88
2022/03/02 03:02:00;;;;;;;107.13;22.52;;;1.60;99.90;;;;;;5096451;28;20110;-89
2022/03/02 03:04:26;;;;;;;110.85;23.88;;;1.60;99.90;;;;;;5096207;28;20053;-88
2022/03/02 03:06:52;;;;;;;95.55;24.75;;;1.60;99.90;;;;;;5096055;28;20093;-88
2022/03/02 03:09:18;;;;;;;96.53;22.77;;;1.60;99.90;;;;;;5095860;28;20055;-87
2022/03/02 03:11:44;;;;;;;98.55;24.13;;;1.60;99.90;;;;;;5096982;28;20057;-87
2022/03/02 03:14:11;;;;;;;92.88;22.00;;;1.60;99.90;;;;;;5095988;28;20058;-87
2022/03/02 03:16:37;;;;;;;104.97;24.88;;;1.60;99.90;;;;;;5095486;28;20050;-87
2022/03/02 03:19:03;;;;;;;102.50;22.98;;;1.60;99.90;;;;;;5096921;28;20112;-87
2022/03/02 03:21:29;;;;;;;104.60;22.95;;;1.60;99.90;;;;;;5097109;28;20016;-87
2022/03/02 03:23:54;;;;;;;94.50;23.48;;;1.60;99.90;;;;;;5096956;28;20016;-87
2022/03/02 03:26:21;;;;;;;103.03;21.80;;;1.60;99.90;;;;;;5095578;28;20111;-87
2022/03/02 03:28:47;;;;;;;96.10;23.13;;;1.60;99.90;;;;;;5096811;28;20024;-87
2022/03/02 03:31:12;;;;;;;97.28;23.55;;;1.60;99.90;;;;;;5095764;28;20024;-87
2022/03/02 03:33:38;;;;;;;88.63;22.60;;;1.60;99.90;;;;;;5095551;28;20028;-87
2022/03/02 03:36:04;;;;;;;88.10;22.42;;;1.60;99.90;;;;;;5096781;28;20105;-87
2022/03/02 03:38:29;;;;;;;88.30;21.70;;;1.60;99.90;;;;;;5096582;28;20371;-87
2022/03/02 03:40:55;;;;;;;98.60;22.77;;;1.50;99.90;;;;;;5095526;28;20029;-86
2022/03/02 03:43:21;;;;;;;82.13;21.40;;;1.50;99.90;;;;;;5094784;28;20028;-86
2022/03/02 03:45:49;;;;;;;99.82;22.05;;;1.50;99.90;;;;;;5095258;28;20024;-86
2022/03/02 03:48:15;;;;;;;94.60;22.90;;;1.50;99.90;;;;;;5095374;28;20024;-86
2022/03/02 03:50:41;;;;;;;101.70;22.52;;;1.40;99.90;;;;;;5095126;28;20030;-86
2022/03/02 03:53:10;;;;;;;95.93;20.98;;;1.40;99.90;;;;;;5095031;28;20115;-86
2022/03/02 03:55:35;;;;;;;96.70;21.92;;;1.40;99.90;;;;;;5095159;28;20077;-86
2022/03/02 03:58:01;;;;;;;101.35;23.48;;;1.40;99.90;;;;;;5094738;28;20024;-86
2022/03/02 04:00:27;;;;;;;85.35;22.67;;;1.30;99.90;;;;;;5094933;28;20026;-86
2022/03/02 04:02:52;;;;;;;92.28;22.35;;;1.30;99.90;;;;;;5094881;28;20016;-86
2022/03/02 04:05:18;;;;;;;97.97;22.23;;;1.30;99.90;;;;;;5096376;28;20528;-86
2022/03/02 04:07:45;;;;;;;93.50;22.40;;;1.30;99.90;;;;;;5094686;28;20051;-86
2022/03/02 04:10:13;;;;;;;90.38;21.55;;;1.30;99.90;;;;;;5094432;28;20024;-86
2022/03/02 04:12:38;;;;;;;100.60;21.90;;;1.30;99.90;;;;;;5094808;28;20028;-86
2022/03/02 04:15:06;;;;;;;102.75;22.25;;;1.30;99.90;;;;;;5095728;28;20048;-86
2022/03/02 04:17:31;;;;;;;86.38;21.70;;;1.30;99.90;;;;;;5094616;28;20035;-86
2022/03/02 04:19:57;;;;;;;99.78;21.73;;;1.20;99.90;;;;;;5095760;28;20020;-86
2022/03/02 04:22:23;;;;;;;91.95;22.90;;;1.20;99.90;;;;;;5095820;28;20042;-86
2022/03/02 04:24:49;;;;;;;102.63;22.73;;;1.20;99.90;;;;;;5095909;28;20024;-86
2022/03/02 04:27:14;;;;;;;93.95;21.58;;;1.20;99.90;;;;;;5095804;28;20454;-86
2022/03/02 04:29:40;;;;;;;107.10;23.27;;;1.10;99.90;;;;;;5094605;28;20035;-87
2022/03/02 04:32:07;;;;;;;104.97;22.45;;;1.20;99.90;;;;;;5095577;28;20031;-86
2022/03/02 04:34:33;;;;;;;102.18;22.35;;;1.10;99.90;;;;;;5095456;28;20035;-86
2022/03/02 04:36:58;;;;;;;96.20;24.23;;;1.10;99.90;;;;;;5094081;28;20024;-86
2022/03/02 04:39:24;;;;;;;85.30;21.00;;;1.10;99.90;;;;;;5094294;28;20046;-87
2022/03/02 04:41:50;;;;;;;98.15;22.88;;;1.10;99.90;;;;;;5095386;28;20024;-87
2022/03/02 04:44:15;;;;;;;98.93;24.75;;;1.20;99.90;;;;;;5094473;28;20026;-87
2022/03/02 04:46:41;;;;;;;102.30;23.35;;;1.10;99.90;;;;;;5095282;28;20051;-86
2022/03/02 04:49:13;;;;;;;111.57;25.50;;;1.10;99.90;;;;;;5094701;28;20030;-87
2022/03/02 04:51:42;;;;;;;106.45;24.15;;;1.10;99.90;;;;;;5095786;28;20035;-86
2022/03/02 04:54:08;;;;;;;94.38;24.73;;;1.20;99.90;;;;;;5093364;28;20017;-87
2022/03/02 04:56:34;;;;;;;97.35;23.85;;;1.10;99.90;;;;;;5093918;28;20020;-87
2022/03/02 04:59:03;;;;;;;92.63;24.45;;;1.10;99.90;;;;;;5094114;28;20020;-87
2022/03/02 05:01:30;;;;;;;93.82;23.00;;;1.10;99.90;;;;;;5093873;28;20390;-87
2022/03/02 05:03:56;;;;;;;90.90;24.23;;;1.20;99.90;;;;;;5095011;28;20020;-87
2022/03/02 05:06:21;;;;;;;90.22;24.08;;;1.20;99.90;;;;;;5093792;28;20107;-86
2022/03/02 05:08:47;;;;;;;89.78;22.73;;;1.10;99.90;;;;;;5094340;28;20123;-86
2022/03/02 05:11:13;;;;;;;83.60;22.70;;;1.20;99.90;;;;;;5093745;28;20024;-87
2022/03/02 05:13:38;;;;;;;80.88;21.88;;;1.20;99.90;;;;;;5093629;28;20024;-86
2022/03/02 05:16:04;;;;;;;80.63;22.17;;;1.20;99.90;;;;;;5093289;28;20040;-86
2022/03/02 05:18:30;;;;;;;85.05;22.67;;;1.20;99.90;;;;;;5094473;28;20043;-86
2022/03/02 05:20:56;;;;;;;72.63;21.30;;;1.20;99.90;;;;;;5093645;28;20428;-87
2022/03/02 05:23:21;;;;;;;69.47;21.58;;;1.20;99.90;;;;;;5093472;28;20020;-86
2022/03/02 05:25:47;;;;;;;73.53;21.65;;;1.30;99.90;;;;;;5093619;28;20028;-85
2022/03/02 05:28:12;;;;;;;79.95;22.33;;;1.20;99.90;;;;;;5093674;28;20030;-86
2022/03/02 05:30:38;;;;;;;72.40;22.25;;;1.30;99.90;;;;;;5093325;28;20035;-84
2022/03/02 05:33:04;;;;;;;64.53;21.10;;;1.30;99.90;;;;;;5093506;28;20024;-85
2022/03/02 05:35:30;;;;;;;60.83;20.20;;;1.40;99.90;;;;;;5094518;28;20050;-85
2022/03/02 05:37:55;;;;;;;61.72;20.25;;;1.40;99.90;;;;;;5093338;28;20032;-84
2022/03/02 05:40:21;;;;;;;62.17;21.48;;;1.40;99.90;;;;;;5092952;28;20090;-84
2022/03/02 05:42:47;;;;;;;68.65;21.58;;;1.40;99.90;;;;;;5093051;28;20021;-85
2022/03/02 05:45:13;;;;;;;76.28;21.45;;;1.30;99.90;;;;;;5093122;28;20016;-85
2022/03/02 05:47:40;;;;;;;66.43;20.30;;;1.30;99.90;;;;;;5093199;28;20032;-84
2022/03/02 05:50:07;;;;;;;61.83;19.60;;;1.40;99.90;;;;;;5093856;28;20047;-85
2022/03/02 05:52:33;;;;;;;65.13;19.52;;;1.40;99.90;;;;;;5094624;28;20106;-85
2022/03/02 05:54:59;;;;;;;65.38;21.08;;;1.40;99.90;;;;;;5093043;28;20055;-85
2022/03/02 05:57:25;;;;;;;66.57;21.42;;;1.50;99.90;;;;;;5093040;28;20062;-84
2022/03/02 05:59:51;;;;;;;65.47;21.10;;;1.40;99.90;;;;;;5093158;28;20032;-84
2022/03/02 06:02:17;;;;;;;62.13;20.27;;;1.40;99.90;;;;;;5093132;28;20103;-85
2022/03/02 06:04:43;;;;;;;61.22;21.40;;;1.50;99.90;;;;;;5094240;28;20055;-85
2022/03/02 06:07:09;;;;;;;58.78;19.63;;;1.50;99.90;;;;;;5096265;28;20028;-85
2022/03/02 06:09:35;;;;;;;57.88;19.75;;;1.50;99.90;;;;;;5097282;28;20024;-86
2022/03/02 06:12:01;;;;;;;63.38;21.95;;;1.50;99.90;;;;;;5097049;28;20389;-87
2022/03/02 06:14:27;;;;;;;65.72;21.15;;;1.50;99.90;;;;;;5096770;28;20028;-86
2022/03/02 06:16:53;;;;;;;72.03;21.65;;;1.50;99.90;;;;;;5098333;28;20046;-86
2022/03/02 06:19:19;;;;;;;65.78;20.63;;;1.60;99.90;;;;;;5096971;28;20024;-86
2022/03/02 06:21:47;;;;;;;54.33;20.13;;;1.60;99.90;;;;;;5096888;28;20020;-87
2022/03/02 06:24:14;;;;;;;62.42;21.80;;;1.60;99.90;;;;;;5098237;28;20022;-86
2022/03/02 06:26:41;;;;;;;63.38;20.08;;;1.60;99.90;;;;;;5097103;28;20024;-85
2022/03/02 06:29:07;;;;;;;59.85;20.52;;;1.60;99.90;;;;;;5096768;28;20050;-86
2022/03/02 06:31:33;;;;;;;68.18;20.30;;;1.70;99.90;;;;;;5096730;28;20024;-86
2022/03/02 06:34:00;;;;;;;55.00;19.90;;;1.70;99.90;;;;;;5096538;28;20031;-86
2022/03/02 06:36:26;;;;;;;50.72;19.98;;;1.70;99.90;;;;;;5096508;28;20530;-84
2022/03/02 06:38:52;;;;;;;51.65;19.45;;;1.70;99.90;;;;;;5097650;28;20032;-85
2022/03/02 06:41:40;;;;;;;62.03;20.40;;;1.70;99.90;;;;;;5096544;28;20378;-85
2022/03/02 06:44:12;;;;;;;61.85;21.75;;;1.80;99.90;;;;;;5096298;28;20020;-84
2022/03/02 06:47:09;;;;;;;59.30;19.58;;;1.70;99.90;;;;;;5097535;28;20059;-85
2022/03/02 06:50:07;;;;;;;54.35;20.25;;;1.70;99.90;;;;;;5090092;28;20039;-84
2022/03/02 06:52:37;;;;;;;58.83;19.45;;;1.80;99.90;;;;;;5096021;28;20020;-84
2022/03/02 06:55:15;;;;;;;51.60;18.42;;;1.80;99.90;;;;;;5097302;28;20516;-85
2022/03/02 06:57:46;;;;;;;51.95;19.13;;;1.80;99.90;;;;;;5096156;28;20474;-84
2022/03/02 07:00:17;;;;;;;52.35;20.02;;;1.80;99.90;;;;;;5097524;28;20026;-84
2022/03/02 07:02:59;;;;;;;54.88;20.90;;;1.80;99.90;;;;;;5096173;28;20031;-84
2022/03/02 07:05:26;;;;;;;51.72;20.05;;;1.80;99.90;;;;;;5097162;28;20103;-84
2022/03/02 07:07:52;;;;;;;50.03;20.10;;;1.80;99.90;;;;;;5095893;28;20114;-84
2022/03/02 07:10:17;;;;;;;54.67;20.10;;;1.90;99.90;;;;;;5095823;28;20063;-84
2022/03/02 07:12:44;;;;;;;49.50;19.52;;;1.90;99.90;;;;;;5095837;28;20028;-89
2022/03/02 07:15:10;;;;;;;47.78;18.10;;;1.90;99.90;;;;;;5095493;28;20051;-84
2022/03/02 07:17:37;;;;;;;50.85;19.05;;;2.00;99.90;;;;;;5094539;28;20062;-84
2022/03/02 07:20:10;;;;;;;53.15;20.23;;;2.00;99.90;;;;;;5095517;28;20027;-84
2022/03/02 07:22:46;;;;;;;49.42;18.25;;;1.90;99.90;;;;;;5095562;28;20027;-84
2022/03/02 07:25:30;;;;;;;48.80;18.25;;;2.00;99.90;;;;;;5096587;28;20508;-84
2022/03/02 07:27:56;;;;;;;48.92;18.75;;;2.00;99.90;;;;;;5095329;28;20032;-85
2022/03/02 07:30:23;;;;;;;50.35;19.63;;;2.00;99.90;;;;;;5095287;28;20024;-84
2022/03/02 07:32:51;;;;;;;50.10;19.23;;;2.00;99.90;;;;;;5095160;28;20063;-84
2022/03/02 07:35:18;;;;;;;46.85;17.58;;;1.90;99.90;;;;;;5095244;28;20028;-84
2022/03/02 07:37:45;;;;;;;51.53;19.17;;;1.90;99.90;;;;;;5094913;28;20476;-84
2022/03/02 07:40:12;;;;;;;46.90;18.67;;;1.90;99.90;;;;;;5096218;28;20022;-84
2022/03/02 07:42:38;;;;;;;52.20;19.35;;;2.00;99.90;;;;;;5094938;28;20488;-84
2022/03/02 07:45:05;;;;;;;46.63;17.25;;;2.00;99.90;;;;;;5094939;28;20028;-84
2022/03/02 07:47:31;;;;;;;41.25;17.38;;;2.00;99.90;;;;;;5095131;28;20378;-84
2022/03/02 07:49:57;;;;;;;46.28;18.08;;;2.00;99.90;;;;;;5096102;28;20032;-85
2022/03/02 07:52:27;;;;;;;51.58;18.48;;;2.00;99.90;;;;;;5094931;28;20035;-84
2022/03/02 07:54:58;;;;;;;46.50;18.20;;;2.00;99.90;;;;;;5094843;28;20028;-85
2022/03/02 07:57:24;;;;;;;49.65;19.58;;;2.10;99.90;;;;;;5094737;28;20024;-84
2022/03/02 07:59:52;;;;;;;46.65;18.02;;;2.10;99.90;;;;;;5095755;28;20077;-84
2022/03/02 08:02:23;;;;;;;40.85;17.88;;;2.10;99.90;;;;;;5094839;28;20421;-84
2022/03/02 08:04:52;;;;;;;44.08;17.15;;;2.20;99.90;;;;;;5094488;28;20027;-84
2022/03/02 08:07:19;;;;;;;39.95;18.05;;;2.20;99.90;;;;;;5094447;28;20028;-84
2022/03/02 08:09:44;;;;;;;45.75;17.35;;;2.20;99.90;;;;;;5094529;28;20067;-84
2022/03/02 08:12:11;;;;;;;43.25;17.92;;;2.20;99.90;;;;;;5094591;28;20044;-84
2022/03/02 08:14:37;;;;;;;44.00;17.95;;;2.30;99.90;;;;;;5094406;28;20020;-85
2022/03/02 08:17:04;;;;;;;42.92;16.70;;;2.30;99.90;;;;;;5094451;28;20139;-84
2022/03/02 08:19:33;;;;;;;42.47;16.35;;;2.40;99.90;;;;;;5094160;28;20020;-84
2022/03/02 08:22:05;;;;;;;40.90;17.15;;;2.40;99.90;;;;;;5094341;28;20039;-84
2022/03/02 08:24:32;;;;;;;33.75;16.15;;;2.30;99.90;;;;;;5094190;28;20024;-84
2022/03/02 08:27:00;;;;;;;38.70;16.65;;;2.30;99.90;;;;;;5095524;28;20031;-84
2022/03/02 08:29:30;;;;;;;39.67;17.23;;;2.40;99.90;;;;;;5093996;28;20110;-84
2022/03/02 08:31:59;;;;;;;42.57;16.93;;;2.40;99.90;;;;;;5094120;28;20386;-84
2022/03/02 08:34:26;;;;;;;35.85;15.55;;;2.40;99.90;;;;;;5094022;28;20016;-84
2022/03/02 08:36:53;;;;;;;40.45;16.92;;;2.40;99.90;;;;;;5095098;28;20024;-84
2022/03/02 08:39:19;;;;;;;38.30;16.73;;;2.40;99.90;;;;;;5093831;28;20024;-84
2022/03/02 08:41:45;;;;;;;37.90;16.33;;;2.50;99.90;;;;;;5093954;28;20369;-84
2022/03/02 08:44:12;;;;;;;46.70;17.33;;;2.50;99.90;;;;;;5095112;28;20091;-84
2022/03/02 08:46:39;;;;;;;41.40;17.17;;;2.40;99.90;;;;;;5093793;28;20027;-85
2022/03/02 08:49:05;;;;;;;50.08;21.92;;;2.40;99.90;;;;;;5093997;28;20028;-84
2022/03/02 08:51:33;;;;;;;68.63;25.88;;;2.40;99.90;;;;;;5093724;28;20032;-84
2022/03/02 08:54:01;;;;;;;40.63;18.08;;;2.40;99.90;;;;;;5093594;28;20038;-84
2022/03/02 08:56:27;;;;;;;46.80;19.98;;;2.40;99.90;;;;;;5093587;28;20077;-84
2022/03/02 08:58:54;;;;;;;47.97;20.55;;;2.40;99.90;;;;;;5093501;28;20024;-85
2022/03/02 09:01:20;;;;;;;42.25;18.58;;;2.50;99.90;;;;;;5093719;28;20386;-85
2022/03/02 09:03:51;;;;;;;38.45;16.92;;;2.50;99.90;;;;;;5093741;28;20020;-85
2022/03/02 09:06:20;;;;;;;;;;;2.50;99.90;;;;;;5093988;28;20028;-85
2022/03/02 09:08:46;;;;;;;42.00;19.38;;;2.40;99.90;;;;;;5094735;28;20247;-85
2022/03/02 09:11:12;;;;;;;44.83;19.73;;;2.50;99.90;;;;;;5093647;28;20028;-85
2022/03/02 09:13:39;;;;;;;80.13;31.63;;;2.50;99.90;;;;;;5093478;28;20437;-85
2022/03/02 09:16:06;;;;;;;49.80;19.80;;;2.50;99.90;;;;;;5093084;28;20048;-85
2022/03/02 09:18:32;;;;;;;67.85;25.50;;;2.40;99.90;;;;;;5094345;28;20375;-85
2022/03/02 09:21:03;;;;;;;140.05;45.35;;;2.40;99.90;;;;;;5093358;28;20047;-85
2022/03/02 09:23:30;;;;;;;79.00;30.08;;;2.40;99.90;;;;;;5094619;28;20028;-85
2022/03/02 09:26:05;;;;;;;112.47;38.33;;;2.40;99.90;;;;;;5093254;28;20064;-86
2022/03/02 09:28:35;;;;;;;136.68;46.15;;;2.50;99.90;;;;;;5094552;28;20024;-86
2022/03/02 09:31:07;;;;;;;52.50;21.83;;;2.50;99.90;;;;;;5094453;28;20024;-85
2022/03/02 09:33:34;;;;;;;47.75;20.13;;;2.50;99.90;;;;;;5094523;28;20024;-85
2022/03/02 09:36:06;;;;;;;44.28;20.33;;;2.50;99.90;;;;;;5093249;28;20031;-85
2022/03/02 09:38:33;;;;;;;41.10;16.63;;;2.50;99.90;;;;;;5092684;28;20024;-85
2022/03/02 09:41:07;;;;;;;42.40;20.75;;;2.50;99.90;;;;;;5092526;28;20040;-84
2022/03/02 09:43:35;;;;;;;42.38;17.75;;;2.50;99.90;;;;;;5093023;28;20031;-84
2022/03/02 09:46:06;;;;;;;70.20;31.13;;;2.50;99.90;;;;;;5094223;28;20027;-85
2022/03/02 09:48:47;;;;;;;139.80;47.17;;;2.50;99.90;;;;;;5093169;28;20474;-84
2022/03/02 09:51:21;;;;;;;91.50;36.22;;;2.60;99.90;;;;;;5093208;28;20080;-85
2022/03/02 09:53:49;;;;;;;47.30;20.52;;;2.60;99.90;;;;;;5093117;28;20496;-85
2022/03/02 09:56:18;;;;;;;38.25;17.00;;;2.60;99.90;;;;;;5092921;28;20020;-84
2022/03/02 09:58:49;;;;;;;45.70;17.23;;;2.60;99.90;;;;;;5093771;28;20108;-84
2022/03/02 10:01:15;;;;;;;39.72;17.60;;;2.60;99.90;;;;;;5094010;28;20019;-85
2022/03/02 10:03:46;;;;;;;40.50;16.60;;;2.50;99.90;;;;;;5092985;28;20024;-84
2022/03/02 10:06:13;;;;;;;42.78;16.77;;;2.50;99.90;;;;;;5092826;28;20021;-84
2022/03/02 10:08:49;;;;;;;42.63;16.73;;;2.50;99.90;;;;;;5092859;28;20428;-85
2022/03/02 10:11:20;;;;;;;47.47;17.98;;;2.40;99.90;;;;;;5092780;28;20028;-85
2022/03/02 10:13:45;;;;;;;;;;;2.40;99.90;;;;;;5094496;28;20062;-85
2022/03/02 10:16:21;;;;;;;38.83;16.45;;;2.30;99.90;;;;;;5093722;28;19912;-85
2022/03/02 10:18:57;;;;;;;41.40;17.15;;;2.40;99.90;;;;;;5093783;28;20028;-85
2022/03/02 10:21:30;;;;;;;40.65;16.30;;;2.40;99.90;;;;;;5092764;28;20047;-86
2022/03/02 10:24:02;;;;;;;38.60;16.52;;;2.40;99.90;;;;;;5092493;28;20029;-86
2022/03/02 10:26:34;;;;;;;40.97;16.73;;;2.50;99.90;;;;;;5093896;28;20031;-86
2022/03/02 10:29:06;;;;;;;39.58;16.25;;;2.50;99.90;;;;;;5092690;28;20024;-86
2022/03/02 10:31:39;;;;;;;40.40;16.25;;;2.50;99.90;;;;;;5092808;28;20118;-86
2022/03/02 10:34:26;;;;;;;40.08;16.42;;;2.50;99.90;;;;;;5092693;28;20056;-86
2022/03/02 10:37:01;;;;;;;43.35;17.48;;;2.50;99.90;;;;;;5092660;28;20360;-86
2022/03/02 10:39:27;;;;;;;42.13;16.77;;;2.50;99.90;;;;;;5092762;28;20028;-86
2022/03/02 10:41:59;;;;;;;40.58;17.27;;;2.60;99.90;;;;;;5092572;28;20027;-86
2022/03/02 10:44:47;;;;;;;42.15;17.23;;;2.50;99.90;;;;;;5092736;28;20021;-86
2022/03/02 10:47:20;;;;;;;52.38;18.48;;;2.50;99.90;;;;;;5092689;28;20467;-86
2022/03/02 10:49:46;;;;;;;37.92;16.85;;;2.50;99.90;;;;;;5093568;28;20039;-85
2022/03/02 10:52:14;;;;;;;38.15;16.52;;;2.50;99.90;;;;;;5093774;28;20127;-86
2022/03/02 10:54:41;;;;;;;40.38;16.73;;;2.50;99.90;;;;;;5096218;28;20115;-86
2022/03/02 10:57:12;;;;;;;40.40;16.85;;;2.50;99.90;;;;;;5096164;28;20036;-86
2022/03/02 10:59:43;;;;;;;42.88;17.13;;;2.50;99.90;;;;;;5096227;28;20016;-85
2022/03/02 11:02:10;;;;;;;37.42;16.30;;;2.50;99.90;;;;;;5097077;28;20060;-86
2022/03/02 11:04:40;;;;;;;38.22;16.33;;;2.50;99.90;;;;;;5097105;28;20024;-86
2022/03/02 11:07:07;;;;;;;43.60;17.13;;;2.60;99.90;;;;;;5097182;28;20043;-86
2022/03/02 11:09:34;;;;;;;32.45;15.45;;;2.60;99.90;;;;;;5097200;28;20043;-85
2022/03/02 11:12:01;;;;;;;33.22;15.07;;;2.60;99.90;;;;;;5096042;28;20032;-86
2022/03/02 11:14:27;;;;;;;43.97;17.38;;;2.60;99.90;;;;;;5095603;28;20490;-86
2022/03/02 11:17:13;;;;;;;37.40;16.83;;;2.60;99.90;;;;;;5096752;28;20440;-85
2022/03/02 11:19:46;;;;;;;38.80;16.25;;;2.70;99.90;;;;;;5095579;28;20027;-85
2022/03/02 11:22:18;;;;;;;43.70;16.75;;;2.70;99.90;;;;;;5095552;28;20023;-85
2022/03/02 11:24:45;;;;;;;37.97;17.13;;;2.70;99.90;;;;;;5095501;28;20130;-85
2022/03/02 11:27:37;;;;;;;40.60;17.10;;;2.70;99.90;;;;;;5095252;28;20028;-85
2022/03/02 11:30:23;;;;;;;37.78;15.65;;;2.80;99.90;;;;;;5096591;28;20451;-85
2022/03/02 11:32:48;;;;;;;37.42;15.68;;;2.80;99.90;;;;;;5096267;28;20050;-85
2022/03/02 11:35:18;;;;;;;39.13;16.15;;;2.80;99.90;;;;;;5096490;28;20107;-85
2022/03/02 11:37:44;;;;;;;39.35;15.95;;;2.80;99.90;;;;;;5095153;28;20024;-85
2022/03/02 11:40:13;;;;;;;39.80;16.25;;;2.80;99.90;;;;;;5096588;28;20367;-85
2022/03/02 11:42:43;;;;;;;39.30;16.73;;;2.70;99.90;;;;;;5095261;28;20050;-85
2022/03/02 11:45:12;;;;;;;40.08;16.13;;;2.80;99.90;;;;;;5095380;28;20178;-85
2022/03/02 11:47:41;;;;;;;43.03;16.13;;;2.80;99.90;;;;;;5095078;28;20482;-85
2022/03/02 11:50:11;;;;;;;36.88;15.63;;;2.90;99.90;;;;;;5094966;28;20024;-85
2022/03/02 11:52:44;;;;;;;35.75;16.08;;;2.90;99.90;;;;;;5095031;28;20035;-86
2022/03/02 11:55:13;;;;;;;34.17;15.80;;;2.90;99.90;;;;;;5095395;28;20054;-85
2022/03/02 11:57:46;;;;;;;36.42;15.57;;;2.90;99.90;;;;;;5096248;28;20552;-85
2022/03/02 12:00:21;;;;;;;32.63;15.20;;;3.00;99.90;;;;;;5096445;28;20016;-85
2022/03/02 12:02:49;;;;;;;37.03;15.85;;;3.00;99.90;;;;;;5095872;28;20020;-84
2022/03/02 12:05:18;;;;;;;30.38;15.02;;;3.00;99.90;;;;;;5094285;28;20066;-85
2022/03/02 12:07:59;;;;;;;31.45;14.10;;;3.00;99.90;;;;;;5094830;28;20438;-86
2022/03/02 12:10:29;;;;;;;33.03;16.17;;;3.00;99.90;;;;;;5094658;28;20482;-85
2022/03/02 12:12:56;;;;;;;30.52;13.57;;;3.00;99.90;;;;;;5094535;28;20040;-85
2022/03/02 12:15:24;;;;;;;29.38;14.73;;;3.00;99.90;;;;;;5094401;28;20052;-86
2022/03/02 12:17:51;;;;;;;33.22;15.35;;;2.90;99.90;;;;;;5094426;28;20036;-86
2022/03/02 12:20:25;;;;;;;33.95;15.98;;;2.90;99.90;;;;;;5095599;28;20423;-85
2022/03/02 12:22:56;;;;;;;34.10;15.18;;;2.90;99.90;;;;;;5095723;28;20028;-86
2022/03/02 12:25:26;;;;;;;34.05;15.07;;;2.90;99.90;;;;;;5095550;28;20466;-86
2022/03/02 12:27:58;;;;;;;31.88;14.10;;;3.00;99.90;;;;;;5094276;28;20063;-86
2022/03/02 12:30:24;;;;;;;31.40;14.95;;;3.10;99.90;;;;;;5094438;28;20028;-86
2022/03/02 12:32:53;;;;;;;31.10;14.80;;;3.10;99.90;;;;;;5094309;28;20028;-87
2022/03/02 12:35:22;;;;;;;32.22;15.07;;;3.10;99.90;;;;;;5094386;28;20063;-87
2022/03/02 12:37:48;;;;;;;31.55;14.55;;;3.00;99.90;;;;;;5094252;28;20052;-86
2022/03/02 12:40:14;;;;;;;33.08;15.07;;;3.10;99.90;;;;;;5094165;28;20020;-86